createdAt,value
2022-12-25T00:02:25.532Z,7.19
2022-12-25T00:07:29.144Z,7.18
2022-12-25T00:12:32.440Z,6.52
2022-12-25T00:17:35.864Z,6.48
2022-12-25T00:22:39.836Z,7.62
2022-12-25T00:27:45.220Z,6.97
2022-12-25T00:32:48.726Z,6.20
2022-12-25T00:37:55.425Z,6.45
2022-12-25T00:42:58.788Z,7.40
2022-12-25T00:48:02.295Z,6.28
2022-12-25T00:53:05.696Z,6.55
2022-12-25T00:58:09.067Z,7.01
2022-12-25T01:03:14.833Z,6.75
2022-12-25T01:08:18.503Z,7.10
2022-12-25T01:13:33.077Z,7.22
2022-12-25T01:18:47.478Z,7.06
2022-12-25T01:23:53.274Z,7.00
2022-12-25T01:28:57.316Z,6.94
2022-12-25T01:34:00.599Z,7.10
2022-12-25T01:39:04.933Z,6.93
2022-12-25T01:44:36.837Z,7.37
2022-12-25T01:49:43.024Z,6.85
2022-12-25T01:54:51.287Z,7.23
2022-12-25T02:00:06.607Z,7.48
2022-12-25T02:05:21.097Z,6.41
2022-12-25T02:10:24.788Z,7.52
2022-12-25T02:16:03.568Z,7.39
2022-12-25T02:21:27.074Z,7.58
2022-12-25T02:26:52.408Z,7.59
2022-12-25T02:32:03.650Z,7.37
2022-12-25T02:37:20.660Z,7.40
2022-12-25T02:42:57.146Z,7.39
2022-12-25T02:48:19.485Z,7.00
2022-12-25T02:53:41.666Z,7.23
2022-12-25T02:59:05.376Z,7.29
2022-12-25T03:04:34.555Z,7.11
2022-12-25T03:10:08.462Z,7.23
2022-12-25T03:15:32.191Z,7.40
2022-12-25T03:20:54.632Z,7.42
2022-12-25T03:26:16.424Z,6.93
2022-12-25T03:31:50.119Z,7.41
2022-12-25T03:37:41.571Z,7.00
2022-12-25T03:43:14.292Z,7.22
2022-12-25T03:48:37.246Z,7.27
2022-12-25T03:54:04.706Z,6.92
2022-12-25T03:59:26.809Z,7.01
2022-12-25T04:04:48.555Z,6.26
2022-12-25T04:10:10.390Z,6.75
2022-12-25T04:15:32.291Z,6.94
2022-12-25T04:20:54.197Z,7.50
2022-12-25T04:26:26.101Z,7.52
2022-12-25T04:31:47.949Z,7.58
2022-12-25T04:36:51.492Z,7.44
2022-12-25T04:41:56.831Z,7.27
2022-12-25T04:47:01.154Z,7.12
2022-12-25T04:52:07.344Z,7.03
2022-12-25T04:57:11.377Z,7.17
2022-12-25T05:02:14.713Z,7.57
2022-12-25T05:07:18.526Z,7.60
2022-12-25T05:12:31.964Z,7.65
2022-12-25T05:17:35.303Z,7.62
2022-12-25T05:22:38.782Z,7.58
2022-12-25T05:27:42.205Z,7.15
2022-12-25T05:32:45.486Z,7.63
2022-12-25T05:37:48.903Z,7.62
2022-12-25T05:42:52.265Z,7.59
2022-12-25T05:48:05.896Z,7.22
2022-12-25T05:53:19.164Z,7.35
2022-12-25T05:58:22.676Z,7.63
2022-12-25T06:03:26.938Z,7.69
2022-12-25T06:08:30.287Z,7.64
2022-12-25T06:13:35.786Z,7.15
2022-12-25T06:18:41.447Z,7.79
2022-12-25T06:23:45.504Z,7.28
2022-12-25T06:28:49.307Z,7.49
2022-12-25T06:33:52.621Z,7.25
2022-12-25T06:38:56.223Z,7.74
2022-12-25T06:44:01.391Z,6.95
2022-12-25T06:49:04.899Z,7.64
2022-12-25T06:54:09.815Z,6.72
2022-12-25T06:59:13.644Z,7.77
2022-12-25T07:04:39.622Z,7.90
2022-12-25T07:09:43.515Z,7.97
2022-12-25T07:14:49.951Z,7.99
2022-12-25T07:19:53.588Z,7.52
2022-12-25T07:25:00.151Z,7.68
2022-12-25T07:30:03.529Z,8.05
2022-12-25T07:35:07.154Z,7.73
2022-12-25T07:40:11.108Z,7.68
2022-12-25T07:45:14.373Z,7.74
2022-12-25T07:50:18.177Z,8.00
2022-12-25T07:55:22.560Z,8.21
2022-12-25T08:00:33.637Z,8.16
2022-12-25T08:05:37.163Z,7.72
2022-12-25T08:10:49.195Z,8.07
2022-12-25T08:15:58.225Z,8.08
2022-12-25T08:21:07.387Z,8.47
2022-12-25T08:26:14.689Z,8.12
2022-12-25T08:31:27.824Z,8.17
2022-12-25T08:36:31.720Z,8.42
2022-12-25T08:41:37.311Z,8.51
2022-12-25T08:46:50.572Z,7.32
2022-12-25T08:51:54.059Z,8.63
2022-12-25T08:57:02.436Z,8.72
2022-12-25T09:02:06.624Z,8.72
2022-12-25T09:07:09.973Z,8.28
2022-12-25T09:12:13.295Z,8.67
2022-12-25T09:17:26.742Z,8.59
2022-12-25T09:22:30.051Z,8.73
2022-12-25T09:27:33.307Z,8.36
2022-12-25T09:32:46.793Z,8.93
2022-12-25T09:37:50.169Z,8.78
2022-12-25T09:42:55.489Z,8.98
2022-12-25T09:47:58.805Z,8.94
2022-12-25T09:53:08.313Z,8.83
2022-12-25T09:58:13.726Z,8.94
2022-12-25T10:03:48.340Z,9.24
2022-12-25T10:08:57.519Z,9.27
2022-12-25T10:14:19.291Z,9.31
2022-12-25T10:19:25.623Z,9.31
2022-12-25T10:24:33.714Z,9.34
2022-12-25T10:29:37.154Z,9.08
2022-12-25T10:34:42.667Z,9.36
2022-12-25T10:39:47.179Z,9.10
2022-12-25T10:44:57.673Z,9.38
2022-12-25T10:50:07.850Z,8.53
2022-12-25T10:55:13.673Z,9.43
2022-12-25T11:00:25.170Z,9.51
2022-12-25T11:05:34.538Z,9.26
2022-12-25T11:10:42.962Z,9.28
2022-12-25T11:15:49.999Z,9.52
2022-12-25T11:21:14.151Z,9.75
2022-12-25T11:26:19.457Z,9.78
2022-12-25T11:31:44.469Z,8.87
2022-12-25T11:36:50.262Z,9.88
2022-12-25T11:41:59.906Z,9.67
2022-12-25T11:47:14.391Z,9.83
2022-12-25T11:52:18.827Z,8.89
2022-12-25T11:57:27.128Z,10.17
2022-12-25T12:02:44.798Z,10.20
2022-12-25T12:08:01.185Z,9.92
2022-12-25T12:13:42.927Z,10.17
2022-12-25T12:18:50.567Z,9.85
2022-12-25T12:24:02.605Z,9.38
2022-12-25T12:29:09.043Z,9.57
2022-12-25T12:34:24.969Z,10.13
2022-12-25T12:39:36.228Z,10.02
2022-12-25T12:44:39.641Z,9.76
2022-12-25T12:49:42.874Z,9.87
2022-12-25T12:55:03.406Z,9.94
2022-12-25T13:00:17.857Z,9.93
2022-12-25T13:06:12.450Z,9.42
2022-12-25T13:11:27.622Z,9.87
2022-12-25T13:16:36.228Z,8.88
2022-12-25T13:21:39.844Z,9.53
2022-12-25T13:26:43.125Z,8.34
2022-12-25T13:31:46.736Z,9.72
2022-12-25T13:36:52.830Z,9.41
2022-12-25T13:42:12.418Z,9.15
2022-12-25T13:47:38.541Z,9.57
2022-12-25T13:52:42.421Z,8.82
2022-12-25T13:57:52.316Z,9.02
2022-12-25T14:02:58.097Z,7.67
2022-12-25T14:08:04.207Z,8.96
2022-12-25T14:13:20.464Z,8.65
2022-12-25T14:18:25.187Z,8.59
2022-12-25T14:23:48.308Z,8.28
2022-12-25T14:28:55.208Z,8.35
2022-12-25T14:34:00.659Z,8.36
2022-12-25T14:39:07.148Z,8.73
2022-12-25T14:44:34.453Z,8.75
2022-12-25T14:49:38.328Z,8.77
2022-12-25T14:54:46.494Z,8.73
2022-12-25T14:59:57.467Z,8.53
2022-12-25T15:05:00.797Z,8.33
2022-12-25T15:10:57.586Z,8.61
2022-12-25T15:15:37.326Z,8.10
2022-12-25T15:20:40.790Z,8.54
2022-12-25T15:25:44.648Z,8.50
2022-12-25T15:30:48.488Z,8.46
2022-12-25T15:36:01.981Z,8.60
2022-12-25T15:41:11.059Z,7.61
2022-12-25T15:46:14.409Z,8.50
2022-12-25T15:51:17.671Z,8.28
2022-12-25T15:56:21.365Z,7.98
2022-12-25T16:01:24.725Z,8.46
2022-12-25T16:06:28.192Z,7.38
2022-12-25T16:11:32.291Z,7.63
2022-12-25T16:16:36.247Z,7.27
2022-12-25T16:21:45.735Z,7.74
2022-12-25T16:26:49.181Z,7.47
2022-12-25T16:32:02.649Z,7.59
2022-12-25T16:37:06.521Z,7.78
2022-12-25T16:42:09.987Z,7.73
2022-12-25T16:47:15.219Z,7.61
2022-12-25T16:52:18.622Z,7.30
2022-12-25T16:57:22.104Z,7.46
2022-12-25T17:02:25.821Z,7.05
2022-12-25T17:07:40.054Z,7.65
2022-12-25T17:12:46.392Z,7.82
2022-12-25T17:17:49.772Z,8.11
2022-12-25T17:22:53.241Z,8.00
2022-12-25T17:27:56.625Z,8.13
2022-12-25T17:33:00.030Z,8.21
2022-12-25T17:38:04.557Z,8.02
2022-12-25T17:43:08.423Z,7.67
2022-12-25T17:48:11.871Z,8.11
2022-12-25T17:53:15.631Z,8.07
2022-12-25T17:58:19.049Z,7.96
2022-12-25T18:03:23.460Z,8.12
2022-12-25T18:08:26.862Z,8.24
2022-12-25T18:13:30.413Z,7.96
2022-12-25T18:18:36.027Z,8.08
2022-12-25T18:23:39.782Z,8.06
2022-12-25T18:28:54.422Z,7.70
2022-12-25T18:33:59.803Z,6.99
2022-12-25T18:39:03.540Z,7.13
2022-12-25T18:44:06.812Z,7.65
2022-12-25T18:49:12.055Z,8.10
2022-12-25T18:54:15.434Z,7.19
2022-12-25T18:59:19.578Z,7.75
2022-12-25T19:04:23.001Z,8.14
2022-12-25T19:09:29.951Z,7.51
2022-12-25T19:14:48.026Z,7.87
2022-12-25T19:19:54.085Z,7.79
2022-12-25T19:24:57.595Z,8.16
2022-12-25T19:30:01.011Z,8.03
2022-12-25T19:35:13.721Z,7.80
2022-12-25T19:40:27.255Z,8.08
2022-12-25T19:45:30.917Z,8.16
2022-12-25T19:50:39.413Z,7.68
2022-12-25T19:55:43.201Z,7.92
2022-12-25T20:00:46.827Z,7.99
2022-12-25T20:05:52.917Z,7.23
2022-12-25T20:10:56.255Z,7.99
2022-12-25T20:16:02.988Z,7.23
2022-12-25T20:21:14.904Z,7.86
2022-12-25T20:26:20.689Z,8.31
2022-12-25T20:31:28.007Z,8.24
2022-12-25T20:36:36.817Z,8.32
2022-12-25T20:41:41.464Z,8.14
2022-12-25T20:46:45.364Z,8.03
2022-12-25T20:51:49.261Z,8.18
2022-12-25T20:57:02.345Z,7.69
2022-12-25T21:02:34.769Z,7.51
2022-12-25T21:07:39.055Z,7.87
2022-12-25T21:12:42.347Z,6.67
2022-12-25T21:17:45.958Z,7.84
2022-12-25T21:22:49.232Z,7.63
2022-12-25T21:27:52.631Z,7.72
2022-12-25T21:33:17.058Z,7.75
2022-12-25T21:38:20.630Z,7.74
2022-12-25T21:43:24.019Z,7.47
2022-12-25T21:48:27.279Z,7.85
2022-12-25T21:53:30.539Z,7.60
2022-12-25T21:58:33.956Z,8.14
2022-12-25T22:03:37.566Z,7.93
2022-12-25T22:08:41.179Z,7.38
2022-12-25T22:14:05.891Z,7.14
2022-12-25T22:19:28.910Z,7.77
2022-12-25T22:24:42.397Z,7.86
2022-12-25T22:29:46.132Z,7.67
2022-12-25T22:34:52.589Z,6.85
2022-12-25T22:39:56.542Z,7.55
2022-12-25T22:44:59.890Z,7.58
2022-12-25T22:50:04.754Z,7.32
2022-12-25T22:55:10.077Z,6.97
2022-12-25T23:00:14.417Z,7.12
2022-12-25T23:05:17.750Z,8.08
2022-12-25T23:10:31.516Z,6.97
2022-12-25T23:15:34.977Z,7.72
2022-12-25T23:20:57.337Z,7.37
2022-12-25T23:26:11.443Z,7.65
2022-12-25T23:31:15.433Z,7.84
2022-12-25T23:36:19.148Z,6.85
2022-12-25T23:41:32.882Z,7.51
2022-12-25T23:46:37.096Z,6.67
2022-12-25T23:51:45.434Z,7.78
2022-12-25T23:56:56.153Z,7.60
